sensor_id;sensor_type;location;lat;lon;timestamp;temperature;humidity
25112;DHT22;13092;51.996;4.458;2023-11-21T00:00:07;9.70;99.90
25112;DHT22;13092;51.996;4.458;2023-11-21T00:02:39;9.70;99.90
25112;DHT22;13092;51.996;4.458;2023-11-21T00:05:08;9.90;99.90
25112;DHT22;13092;51.996;4.458;2023-11-21T00:07:37;9.80;99.90
25112;DHT22;13092;51.996;4.458;2023-11-21T00:10:07;9.80;99.90
25112;DHT22;13092;51.996;4.458;2023-11-21T00:12:37;9.80;99.90
25112;DHT22;13092;51.996;4.458;2023-11-21T00:15:10;9.80;99.90
25112;DHT22;13092;51.996;4.458;2023-11-21T00:17:39;9.90;99.90
25112;DHT22;13092;51.996;4.458;2023-11-21T00:20:08;9.90;99.90
25112;DHT22;13092;51.996;4.458;2023-11-21T00:22:39;10.00;99.90
25112;DHT22;13092;51.996;4.458;2023-11-21T00:25:12;10.10;99.90
25112;DHT22;13092;51.996;4.458;2023-11-21T00:27:42;10.10;99.90
25112;DHT22;13092;51.996;4.458;2023-11-21T00:30:12;10.20;99.90
25112;DHT22;13092;51.996;4.458;2023-11-21T00:32:40;10.20;99.90
25112;DHT22;13092;51.996;4.458;2023-11-21T00:35:09;10.20;99.90
25112;DHT22;13092;51.996;4.458;2023-11-21T00:37:37;10.30;99.90
25112;DHT22;13092;51.996;4.458;2023-11-21T00:40:07;10.30;99.90
25112;DHT22;13092;51.996;4.458;2023-11-21T00:42:37;10.30;99.90
25112;DHT22;13092;51.996;4.458;2023-11-21T00:45:07;10.30;99.90
25112;DHT22;13092;51.996;4.458;2023-11-21T00:47:35;10.30;99.90
25112;DHT22;13092;51.996;4.458;2023-11-21T00:50:04;10.40;99.90
25112;DHT22;13092;51.996;4.458;2023-11-21T00:52:33;10.40;99.90
25112;DHT22;13092;51.996;4.458;2023-11-21T00:55:03;10.60;99.90
25112;DHT22;13092;51.996;4.458;2023-11-21T00:57:31;10.40;99.90
25112;DHT22;13092;51.996;4.458;2023-11-21T01:00:01;10.60;99.90
25112;DHT22;13092;51.996;4.458;2023-11-21T01:02:33;10.50;99.90
25112;DHT22;13092;51.996;4.458;2023-11-21T01:05:03;10.50;99.90
25112;DHT22;13092;51.996;4.458;2023-11-21T01:07:31;10.50;99.90
25112;DHT22;13092;51.996;4.458;2023-11-21T01:09:59;10.60;99.90
25112;DHT22;13092;51.996;4.458;2023-11-21T01:12:28;10.70;99.90
25112;DHT22;13092;51.996;4.458;2023-11-21T01:14:56;10.60;99.90
25112;DHT22;13092;51.996;4.458;2023-11-21T01:17:25;10.60;99.90
25112;DHT22;13092;51.996;4.458;2023-11-21T01:19:54;10.60;99.90
25112;DHT22;13092;51.996;4.458;2023-11-21T01:22:23;10.70;99.90
25112;DHT22;13092;51.996;4.458;2023-11-21T01:24:53;10.70;99.90
25112;DHT22;13092;51.996;4.458;2023-11-21T01:27:21;10.70;99.90
25112;DHT22;13092;51.996;4.458;2023-11-21T01:29:49;10.70;99.90
25112;DHT22;13092;51.996;4.458;2023-11-21T01:32:20;10.70;99.90
25112;DHT22;13092;51.996;4.458;2023-11-21T01:34:50;10.80;99.90
25112;DHT22;13092;51.996;4.458;2023-11-21T01:37:18;10.80;99.90
25112;DHT22;13092;51.996;4.458;2023-11-21T01:39:48;10.70;99.90
25112;DHT22;13092;51.996;4.458;2023-11-21T01:42:16;10.80;99.90
25112;DHT22;13092;51.996;4.458;2023-11-21T01:44:45;10.80;99.90
25112;DHT22;13092;51.996;4.458;2023-11-21T01:47:13;10.80;99.90
25112;DHT22;13092;51.996;4.458;2023-11-21T01:49:44;10.80;99.90
25112;DHT22;13092;51.996;4.458;2023-11-21T01:52:14;10.90;99.90
25112;DHT22;13092;51.996;4.458;2023-11-21T01:54:42;10.80;99.90
25112;DHT22;13092;51.996;4.458;2023-11-21T01:57:10;10.80;99.90
25112;DHT22;13092;51.996;4.458;2023-11-21T01:59:41;10.80;99.90
25112;DHT22;13092;51.996;4.458;2023-11-21T02:02:09;10.80;99.90
25112;DHT22;13092;51.996;4.458;2023-11-21T02:04:37;10.80;99.90
25112;DHT22;13092;51.996;4.458;2023-11-21T02:07:05;10.80;99.90
25112;DHT22;13092;51.996;4.458;2023-11-21T02:09:35;10.90;99.90
25112;DHT22;13092;51.996;4.458;2023-11-21T02:12:05;10.90;99.90
25112;DHT22;13092;51.996;4.458;2023-11-21T02:14:34;10.80;99.90
25112;DHT22;13092;51.996;4.458;2023-11-21T02:17:02;10.90;99.90
25112;DHT22;13092;51.996;4.458;2023-11-21T02:19:30;10.90;99.90
25112;DHT22;13092;51.996;4.458;2023-11-21T02:21:59;10.90;99.90
25112;DHT22;13092;51.996;4.458;2023-11-21T02:24:32;10.90;99.90
25112;DHT22;13092;51.996;4.458;2023-11-21T02:27:00;11.00;99.90
25112;DHT22;13092;51.996;4.458;2023-11-21T02:29:28;10.90;99.90
25112;DHT22;13092;51.996;4.458;2023-11-21T02:31:57;11.10;99.90
25112;DHT22;13092;51.996;4.458;2023-11-21T02:34:26;10.90;99.90
25112;DHT22;13092;51.996;4.458;2023-11-21T02:36:54;11.00;99.90
25112;DHT22;13092;51.996;4.458;2023-11-21T02:39:24;11.00;99.90
25112;DHT22;13092;51.996;4.458;2023-11-21T02:41:53;11.00;99.90
25112;DHT22;13092;51.996;4.458;2023-11-21T02:44:21;10.90;99.90
25112;DHT22;13092;51.996;4.458;2023-11-21T02:46:49;11.00;99.90
25112;DHT22;13092;51.996;4.458;2023-11-21T02:49:18;11.00;99.90
25112;DHT22;13092;51.996;4.458;2023-11-21T02:51:46;11.10;99.90
25112;DHT22;13092;51.996;4.458;2023-11-21T02:54:14;11.10;99.90
25112;DHT22;13092;51.996;4.458;2023-11-21T02:56:46;11.10;99.90
25112;DHT22;13092;51.996;4.458;2023-11-21T02:59:15;11.10;99.90
25112;DHT22;13092;51.996;4.458;2023-11-21T03:01:43;11.10;99.90
25112;DHT22;13092;51.996;4.458;2023-11-21T03:04:12;11.20;99.90
25112;DHT22;13092;51.996;4.458;2023-11-21T03:06:44;11.10;99.90
25112;DHT22;13092;51.996;4.458;2023-11-21T03:09:12;11.20;99.90
25112;DHT22;13092;51.996;4.458;2023-11-21T03:11:40;11.20;99.90
25112;DHT22;13092;51.996;4.458;2023-11-21T03:14:08;11.30;99.90
25112;DHT22;13092;51.996;4.458;2023-11-21T03:16:39;11.30;99.90
25112;DHT22;13092;51.996;4.458;2023-11-21T03:19:08;11.40;99.90
25112;DHT22;13092;51.996;4.458;2023-11-21T03:21:36;11.30;99.90
25112;DHT22;13092;51.996;4.458;2023-11-21T03:24:05;11.20;99.90
25112;DHT22;13092;51.996;4.458;2023-11-21T03:26:34;11.30;99.90
25112;DHT22;13092;51.996;4.458;2023-11-21T03:29:04;11.30;99.90
25112;DHT22;13092;51.996;4.458;2023-11-21T03:31:32;11.30;99.90
25112;DHT22;13092;51.996;4.458;2023-11-21T03:34:04;11.30;99.90
25112;DHT22;13092;51.996;4.458;2023-11-21T03:36:33;11.20;99.90
25112;DHT22;13092;51.996;4.458;2023-11-21T03:39:06;11.40;99.90
25112;DHT22;13092;51.996;4.458;2023-11-21T03:41:35;11.40;99.90
25112;DHT22;13092;51.996;4.458;2023-11-21T03:44:05;11.20;99.90
25112;DHT22;13092;51.996;4.458;2023-11-21T03:46:36;11.40;99.90
25112;DHT22;13092;51.996;4.458;2023-11-21T03:49:06;11.40;99.90
25112;DHT22;13092;51.996;4.458;2023-11-21T03:51:34;11.50;99.90
25112;DHT22;13092;51.996;4.458;2023-11-21T03:54:04;11.50;99.90
25112;DHT22;13092;51.996;4.458;2023-11-21T03:56:32;11.50;99.90
25112;DHT22;13092;51.996;4.458;2023-11-21T03:59:00;11.50;99.90
25112;DHT22;13092;51.996;4.458;2023-11-21T04:01:30;11.50;99.90
25112;DHT22;13092;51.996;4.458;2023-11-21T04:03:58;11.60;99.90
25112;DHT22;13092;51.996;4.458;2023-11-21T04:06:28;11.60;99.90
25112;DHT22;13092;51.996;4.458;2023-11-21T04:08:56;11.60;99.90
25112;DHT22;13092;51.996;4.458;2023-11-21T04:11:25;11.60;99.90
25112;DHT22;13092;51.996;4.458;2023-11-21T04:13:55;11.50;99.90
25112;DHT22;13092;51.996;4.458;2023-11-21T04:16:23;11.50;99.90
25112;DHT22;13092;51.996;4.458;2023-11-21T04:18:51;11.50;99.90
25112;DHT22;13092;51.996;4.458;2023-11-21T04:21:19;11.50;99.90
25112;DHT22;13092;51.996;4.458;2023-11-21T04:23:49;11.50;99.90
25112;DHT22;13092;51.996;4.458;2023-11-21T04:26:17;11.50;99.90
25112;DHT22;13092;51.996;4.458;2023-11-21T04:28:45;11.50;99.90
25112;DHT22;13092;51.996;4.458;2023-11-21T04:31:14;11.50;99.90
25112;DHT22;13092;51.996;4.458;2023-11-21T04:33:42;11.50;99.90
25112;DHT22;13092;51.996;4.458;2023-11-21T04:36:12;11.60;99.90
25112;DHT22;13092;51.996;4.458;2023-11-21T04:38:50;11.60;99.90
25112;DHT22;13092;51.996;4.458;2023-11-21T04:41:18;11.60;99.90
25112;DHT22;13092;51.996;4.458;2023-11-21T04:43:47;11.60;99.90
25112;DHT22;13092;51.996;4.458;2023-11-21T04:46:16;11.60;99.90
25112;DHT22;13092;51.996;4.458;2023-11-21T04:48:44;11.60;99.90
25112;DHT22;13092;51.996;4.458;2023-11-21T04:51:13;11.50;99.90
25112;DHT22;13092;51.996;4.458;2023-11-21T04:53:42;11.60;99.90
25112;DHT22;13092;51.996;4.458;2023-11-21T04:56:12;11.50;99.90
25112;DHT22;13092;51.996;4.458;2023-11-21T04:58:40;11.50;99.90
25112;DHT22;13092;51.996;4.458;2023-11-21T05:01:08;11.50;99.90
25112;DHT22;13092;51.996;4.458;2023-11-21T05:03:36;11.60;99.90
25112;DHT22;13092;51.996;4.458;2023-11-21T05:06:06;11.60;99.90
25112;DHT22;13092;51.996;4.458;2023-11-21T05:08:34;11.60;99.90
25112;DHT22;13092;51.996;4.458;2023-11-21T05:11:04;11.70;99.90
25112;DHT22;13092;51.996;4.458;2023-11-21T05:13:35;11.70;99.90
25112;DHT22;13092;51.996;4.458;2023-11-21T05:16:04;11.60;99.90
25112;DHT22;13092;51.996;4.458;2023-11-21T05:18:34;11.70;99.90
25112;DHT22;13092;51.996;4.458;2023-11-21T05:21:02;11.60;99.90
25112;DHT22;13092;51.996;4.458;2023-11-21T05:23:30;11.60;99.90
25112;DHT22;13092;51.996;4.458;2023-11-21T05:25:58;11.60;99.90
25112;DHT22;13092;51.996;4.458;2023-11-21T05:28:26;11.40;99.90
25112;DHT22;13092;51.996;4.458;2023-11-21T05:30:56;11.40;99.90
25112;DHT22;13092;51.996;4.458;2023-11-21T05:33:41;11.40;99.90
25112;DHT22;13092;51.996;4.458;2023-11-21T05:36:10;11.40;99.90
25112;DHT22;13092;51.996;4.458;2023-11-21T05:38:38;11.40;99.90
25112;DHT22;13092;51.996;4.458;2023-11-21T05:41:06;11.40;99.90
25112;DHT22;13092;51.996;4.458;2023-11-21T05:43:36;11.30;99.90
25112;DHT22;13092;51.996;4.458;2023-11-21T05:46:07;11.30;99.90
25112;DHT22;13092;51.996;4.458;2023-11-21T05:48:36;11.20;99.90
25112;DHT22;13092;51.996;4.458;2023-11-21T05:51:06;11.30;99.90
25112;DHT22;13092;51.996;4.458;2023-11-21T05:53:35;11.40;99.90
25112;DHT22;13092;51.996;4.458;2023-11-21T05:56:04;11.40;99.90
25112;DHT22;13092;51.996;4.458;2023-11-21T05:58:32;11.40;99.90
25112;DHT22;13092;51.996;4.458;2023-11-21T06:01:00;11.40;99.90
25112;DHT22;13092;51.996;4.458;2023-11-21T06:03:29;11.40;99.90
25112;DHT22;13092;51.996;4.458;2023-11-21T06:05:58;11.40;99.90
25112;DHT22;13092;51.996;4.458;2023-11-21T06:08:26;11.40;99.90
25112;DHT22;13092;51.996;4.458;2023-11-21T06:10:54;11.50;99.90
25112;DHT22;13092;51.996;4.458;2023-11-21T06:13:22;11.50;99.90
25112;DHT22;13092;51.996;4.458;2023-11-21T06:15:51;11.50;99.90
25112;DHT22;13092;51.996;4.458;2023-11-21T06:18:20;11.40;99.90
25112;DHT22;13092;51.996;4.458;2023-11-21T06:20:49;11.60;99.90
25112;DHT22;13092;51.996;4.458;2023-11-21T06:23:19;11.50;99.90
25112;DHT22;13092;51.996;4.458;2023-11-21T06:25:47;11.50;99.90
25112;DHT22;13092;51.996;4.458;2023-11-21T06:28:15;11.50;99.90
25112;DHT22;13092;51.996;4.458;2023-11-21T06:30:44;11.60;99.90
25112;DHT22;13092;51.996;4.458;2023-11-21T06:33:13;11.60;99.90
25112;DHT22;13092;51.996;4.458;2023-11-21T06:35:41;11.60;99.90
25112;DHT22;13092;51.996;4.458;2023-11-21T06:38:11;11.60;99.90
25112;DHT22;13092;51.996;4.458;2023-11-21T06:40:39;11.50;99.90
25112;DHT22;13092;51.996;4.458;2023-11-21T06:43:10;11.50;99.90
25112;DHT22;13092;51.996;4.458;2023-11-21T06:45:38;11.40;99.90
25112;DHT22;13092;51.996;4.458;2023-11-21T06:48:06;11.50;99.90
25112;DHT22;13092;51.996;4.458;2023-11-21T06:50:35;11.50;99.90
25112;DHT22;13092;51.996;4.458;2023-11-21T06:53:03;11.40;99.90
25112;DHT22;13092;51.996;4.458;2023-11-21T06:55:35;11.40;99.90
25112;DHT22;13092;51.996;4.458;2023-11-21T06:58:03;11.40;99.90
25112;DHT22;13092;51.996;4.458;2023-11-21T07:00:34;11.40;99.90
25112;DHT22;13092;51.996;4.458;2023-11-21T07:03:02;11.30;99.90
25112;DHT22;13092;51.996;4.458;2023-11-21T07:05:31;11.30;99.90
25112;DHT22;13092;51.996;4.458;2023-11-21T07:07:59;11.30;99.90
25112;DHT22;13092;51.996;4.458;2023-11-21T07:10:31;11.20;99.90
25112;DHT22;13092;51.996;4.458;2023-11-21T07:13:01;11.20;99.90
25112;DHT22;13092;51.996;4.458;2023-11-21T07:15:29;11.20;99.90
25112;DHT22;13092;51.996;4.458;2023-11-21T07:17:57;11.30;99.90
25112;DHT22;13092;51.996;4.458;2023-11-21T07:20:25;11.30;99.90
25112;DHT22;13092;51.996;4.458;2023-11-21T07:22:53;11.30;99.90
25112;DHT22;13092;51.996;4.458;2023-11-21T07:25:23;11.30;99.90
25112;DHT22;13092;51.996;4.458;2023-11-21T07:27:51;11.30;99.90
25112;DHT22;13092;51.996;4.458;2023-11-21T07:30:21;11.30;99.90
25112;DHT22;13092;51.996;4.458;2023-11-21T07:32:50;11.30;99.90
25112;DHT22;13092;51.996;4.458;2023-11-21T07:35:18;11.40;99.90
25112;DHT22;13092;51.996;4.458;2023-11-21T07:37:46;11.40;99.90
25112;DHT22;13092;51.996;4.458;2023-11-21T07:40:15;11.40;99.90
25112;DHT22;13092;51.996;4.458;2023-11-21T07:42:44;11.40;99.90
25112;DHT22;13092;51.996;4.458;2023-11-21T07:45:12;11.40;99.90
25112;DHT22;13092;51.996;4.458;2023-11-21T07:47:43;11.30;99.90
25112;DHT22;13092;51.996;4.458;2023-11-21T07:50:11;11.60;99.90
25112;DHT22;13092;51.996;4.458;2023-11-21T07:52:40;11.60;99.90
25112;DHT22;13092;51.996;4.458;2023-11-21T07:55:08;11.50;99.90
25112;DHT22;13092;51.996;4.458;2023-11-21T07:57:38;11.60;99.90
25112;DHT22;13092;51.996;4.458;2023-11-21T08:00:08;11.50;99.90
25112;DHT22;13092;51.996;4.458;2023-11-21T08:02:39;11.50;99.90
25112;DHT22;13092;51.996;4.458;2023-11-21T08:05:11;11.70;99.90
25112;DHT22;13092;51.996;4.458;2023-11-21T08:07:50;11.60;99.90
25112;DHT22;13092;51.996;4.458;2023-11-21T08:10:19;11.60;99.90
25112;DHT22;13092;51.996;4.458;2023-11-21T08:12:48;11.60;99.90
25112;DHT22;13092;51.996;4.458;2023-11-21T08:15:17;11.60;99.90
25112;DHT22;13092;51.996;4.458;2023-11-21T08:17:46;11.60;99.90
25112;DHT22;13092;51.996;4.458;2023-11-21T08:20:16;11.80;99.90
25112;DHT22;13092;51.996;4.458;2023-11-21T08:22:45;11.70;99.90
25112;DHT22;13092;51.996;4.458;2023-11-21T08:25:14;11.70;99.90
25112;DHT22;13092;51.996;4.458;2023-11-21T08:27:44;11.80;99.90
25112;DHT22;13092;51.996;4.458;2023-11-21T08:30:12;11.80;99.90
25112;DHT22;13092;51.996;4.458;2023-11-21T08:32:41;11.80;99.90
25112;DHT22;13092;51.996;4.458;2023-11-21T08:35:10;11.80;99.90
25112;DHT22;13092;51.996;4.458;2023-11-21T08:37:40;11.70;99.90
25112;DHT22;13092;51.996;4.458;2023-11-21T08:40:10;11.90;99.90
25112;DHT22;13092;51.996;4.458;2023-11-21T08:42:46;11.90;99.90
25112;DHT22;13092;51.996;4.458;2023-11-21T08:45:15;11.80;99.90
25112;DHT22;13092;51.996;4.458;2023-11-21T08:47:45;11.90;99.90
25112;DHT22;13092;51.996;4.458;2023-11-21T08:50:13;11.90;99.90
25112;DHT22;13092;51.996;4.458;2023-11-21T08:52:45;11.90;99.90
25112;DHT22;13092;51.996;4.458;2023-11-21T08:55:13;11.90;99.90
25112;DHT22;13092;51.996;4.458;2023-11-21T08:57:44;12.00;99.90
25112;DHT22;13092;51.996;4.458;2023-11-21T09:00:13;11.90;99.90
25112;DHT22;13092;51.996;4.458;2023-11-21T09:02:44;11.90;99.90
25112;DHT22;13092;51.996;4.458;2023-11-21T09:05:14;11.90;99.90
25112;DHT22;13092;51.996;4.458;2023-11-21T09:07:44;11.90;99.90
25112;DHT22;13092;51.996;4.458;2023-11-21T09:10:15;12.00;99.90
25112;DHT22;13092;51.996;4.458;2023-11-21T09:12:43;12.00;99.90
25112;DHT22;13092;51.996;4.458;2023-11-21T09:15:12;12.00;99.90
25112;DHT22;13092;51.996;4.458;2023-11-21T09:17:41;11.90;99.90
25112;DHT22;13092;51.996;4.458;2023-11-21T09:20:11;12.10;99.90
25112;DHT22;13092;51.996;4.458;2023-11-21T09:22:43;11.90;99.90
25112;DHT22;13092;51.996;4.458;2023-11-21T09:25:13;12.10;99.90
25112;DHT22;13092;51.996;4.458;2023-11-21T09:27:41;12.00;99.90
25112;DHT22;13092;51.996;4.458;2023-11-21T09:30:11;11.90;99.90
25112;DHT22;13092;51.996;4.458;2023-11-21T09:32:41;11.90;99.90
25112;DHT22;13092;51.996;4.458;2023-11-21T09:35:12;11.90;99.90
25112;DHT22;13092;51.996;4.458;2023-11-21T09:37:44;12.00;99.90
25112;DHT22;13092;51.996;4.458;2023-11-21T09:40:20;12.00;99.90
25112;DHT22;13092;51.996;4.458;2023-11-21T09:42:53;12.00;99.90
25112;DHT22;13092;51.996;4.458;2023-11-21T09:45:26;12.00;99.90
25112;DHT22;13092;51.996;4.458;2023-11-21T09:47:55;12.00;99.90
25112;DHT22;13092;51.996;4.458;2023-11-21T09:50:24;12.00;99.90
25112;DHT22;13092;51.996;4.458;2023-11-21T09:53:13;12.00;99.90
25112;DHT22;13092;51.996;4.458;2023-11-21T09:55:43;12.00;99.90
25112;DHT22;13092;51.996;4.458;2023-11-21T09:58:11;12.10;99.90
25112;DHT22;13092;51.996;4.458;2023-11-21T10:00:41;12.10;99.90
25112;DHT22;13092;51.996;4.458;2023-11-21T10:03:10;12.10;99.90
25112;DHT22;13092;51.996;4.458;2023-11-21T10:05:39;12.00;99.90
25112;DHT22;13092;51.996;4.458;2023-11-21T10:08:10;12.10;99.90
25112;DHT22;13092;51.996;4.458;2023-11-21T10:10:43;12.10;99.90
25112;DHT22;13092;51.996;4.458;2023-11-21T10:13:13;12.00;99.90
25112;DHT22;13092;51.996;4.458;2023-11-21T10:15:44;12.00;99.90
25112;DHT22;13092;51.996;4.458;2023-11-21T10:18:16;12.00;99.90
25112;DHT22;13092;51.996;4.458;2023-11-21T10:20:45;12.00;99.90
25112;DHT22;13092;51.996;4.458;2023-11-21T10:23:23;12.00;99.90
25112;DHT22;13092;51.996;4.458;2023-11-21T10:25:52;12.00;99.90
25112;DHT22;13092;51.996;4.458;2023-11-21T10:28:26;12.00;99.90
25112;DHT22;13092;51.996;4.458;2023-11-21T10:30:58;12.00;99.90
25112;DHT22;13092;51.996;4.458;2023-11-21T10:33:31;12.00;99.90
25112;DHT22;13092;51.996;4.458;2023-11-21T10:36:02;12.00;99.90
25112;DHT22;13092;51.996;4.458;2023-11-21T10:38:42;12.00;99.90
25112;DHT22;13092;51.996;4.458;2023-11-21T10:41:12;11.90;99.90
25112;DHT22;13092;51.996;4.458;2023-11-21T10:44:06;11.90;99.90
25112;DHT22;13092;51.996;4.458;2023-11-21T10:46:38;12.00;99.90
25112;DHT22;13092;51.996;4.458;2023-11-21T10:49:10;11.90;99.90
25112;DHT22;13092;51.996;4.458;2023-11-21T10:51:46;11.80;99.90
25112;DHT22;13092;51.996;4.458;2023-11-21T10:54:20;11.80;99.90
25112;DHT22;13092;51.996;4.458;2023-11-21T10:56:50;11.80;99.90
25112;DHT22;13092;51.996;4.458;2023-11-21T10:59:19;11.80;99.90
25112;DHT22;13092;51.996;4.458;2023-11-21T11:01:52;11.80;99.90
25112;DHT22;13092;51.996;4.458;2023-11-21T11:04:22;11.80;99.90
25112;DHT22;13092;51.996;4.458;2023-11-21T11:06:57;11.80;99.90
25112;DHT22;13092;51.996;4.458;2023-11-21T11:09:34;11.80;99.90
25112;DHT22;13092;51.996;4.458;2023-11-21T11:12:03;11.80;99.90
25112;DHT22;13092;51.996;4.458;2023-11-21T11:14:33;11.70;99.90
25112;DHT22;13092;51.996;4.458;2023-11-21T11:17:02;11.90;99.90
25112;DHT22;13092;51.996;4.458;2023-11-21T11:19:33;11.80;99.90
25112;DHT22;13092;51.996;4.458;2023-11-21T11:22:13;11.80;99.90
25112;DHT22;13092;51.996;4.458;2023-11-21T11:27:51;11.80;99.90
25112;DHT22;13092;51.996;4.458;2023-11-21T11:30:32;11.90;99.90
25112;DHT22;13092;51.996;4.458;2023-11-21T11:33:11;12.00;99.90
25112;DHT22;13092;51.996;4.458;2023-11-21T11:35:51;11.90;99.90
25112;DHT22;13092;51.996;4.458;2023-11-21T11:38:32;11.80;99.90
25112;DHT22;13092;51.996;4.458;2023-11-21T11:41:07;11.90;99.90
25112;DHT22;13092;51.996;4.458;2023-11-21T11:43:36;11.90;99.90
25112;DHT22;13092;51.996;4.458;2023-11-21T11:46:12;11.90;99.90
25112;DHT22;13092;51.996;4.458;2023-11-21T11:48:43;11.90;99.90
25112;DHT22;13092;51.996;4.458;2023-11-21T11:51:17;11.90;99.90
25112;DHT22;13092;51.996;4.458;2023-11-21T11:54:11;11.90;99.90
25112;DHT22;13092;51.996;4.458;2023-11-21T11:57:14;11.80;99.90
25112;DHT22;13092;51.996;4.458;2023-11-21T12:00:08;11.90;99.90
25112;DHT22;13092;51.996;4.458;2023-11-21T12:02:38;11.90;99.90
25112;DHT22;13092;51.996;4.458;2023-11-21T12:05:10;11.90;99.90
25112;DHT22;13092;51.996;4.458;2023-11-21T12:07:48;12.00;99.90
25112;DHT22;13092;51.996;4.458;2023-11-21T12:10:19;11.90;99.90
25112;DHT22;13092;51.996;4.458;2023-11-21T12:12:50;11.90;99.90
25112;DHT22;13092;51.996;4.458;2023-11-21T12:15:19;11.70;99.90
25112;DHT22;13092;51.996;4.458;2023-11-21T12:17:49;11.70;99.90
25112;DHT22;13092;51.996;4.458;2023-11-21T12:20:19;11.70;99.90
25112;DHT22;13092;51.996;4.458;2023-11-21T12:22:48;11.80;99.90
25112;DHT22;13092;51.996;4.458;2023-11-21T12:25:18;11.80;99.90
25112;DHT22;13092;51.996;4.458;2023-11-21T12:27:47;11.90;99.90
25112;DHT22;13092;51.996;4.458;2023-11-21T12:30:19;11.90;99.90
25112;DHT22;13092;51.996;4.458;2023-11-21T12:32:50;11.80;99.90
25112;DHT22;13092;51.996;4.458;2023-11-21T12:35:21;11.90;99.90
25112;DHT22;13092;51.996;4.458;2023-11-21T12:37:51;11.90;99.90
25112;DHT22;13092;51.996;4.458;2023-11-21T12:40:20;11.90;99.90
25112;DHT22;13092;51.996;4.458;2023-11-21T12:42:51;11.90;99.90
25112;DHT22;13092;51.996;4.458;2023-11-21T12:45:23;11.80;99.90
25112;DHT22;13092;51.996;4.458;2023-11-21T12:47:55;11.70;99.90
25112;DHT22;13092;51.996;4.458;2023-11-21T12:50:27;11.70;99.90
25112;DHT22;13092;51.996;4.458;2023-11-21T12:53:02;11.70;99.90
25112;DHT22;13092;51.996;4.458;2023-11-21T12:55:33;11.80;99.90
25112;DHT22;13092;51.996;4.458;2023-11-21T12:58:06;11.80;99.90
25112;DHT22;13092;51.996;4.458;2023-11-21T13:00:41;11.80;99.90
25112;DHT22;13092;51.996;4.458;2023-11-21T13:03:16;11.80;99.90
25112;DHT22;13092;51.996;4.458;2023-11-21T13:05:48;11.80;99.90
25112;DHT22;13092;51.996;4.458;2023-11-21T13:08:19;11.90;99.90
25112;DHT22;13092;51.996;4.458;2023-11-21T13:10:51;11.90;99.90
25112;DHT22;13092;51.996;4.458;2023-11-21T13:13:21;11.80;99.90
25112;DHT22;13092;51.996;4.458;2023-11-21T13:15:53;11.90;99.90
25112;DHT22;13092;51.996;4.458;2023-11-21T13:18:23;11.90;99.90
25112;DHT22;13092;51.996;4.458;2023-11-21T13:20:54;12.00;99.90
25112;DHT22;13092;51.996;4.458;2023-11-21T13:23:25;12.00;99.90
25112;DHT22;13092;51.996;4.458;2023-11-21T13:25:56;12.00;99.90
25112;DHT22;13092;51.996;4.458;2023-11-21T13:28:33;12.10;99.90
25112;DHT22;13092;51.996;4.458;2023-11-21T13:31:04;12.00;99.90
25112;DHT22;13092;51.996;4.458;2023-11-21T13:33:38;12.00;99.90
25112;DHT22;13092;51.996;4.458;2023-11-21T13:36:09;12.10;99.90
25112;DHT22;13092;51.996;4.458;2023-11-21T13:38:38;12.00;99.90
25112;DHT22;13092;51.996;4.458;2023-11-21T13:41:10;12.20;99.90
25112;DHT22;13092;51.996;4.458;2023-11-21T13:43:40;12.00;99.90
25112;DHT22;13092;51.996;4.458;2023-11-21T13:46:12;12.10;99.90
25112;DHT22;13092;51.996;4.458;2023-11-21T13:48:44;12.10;99.90
25112;DHT22;13092;51.996;4.458;2023-11-21T13:51:20;12.10;99.90
25112;DHT22;13092;51.996;4.458;2023-11-21T13:53:56;12.10;99.90
25112;DHT22;13092;51.996;4.458;2023-11-21T13:56:24;12.10;99.90
25112;DHT22;13092;51.996;4.458;2023-11-21T13:58:55;12.10;99.90
25112;DHT22;13092;51.996;4.458;2023-11-21T14:01:26;12.00;99.90
25112;DHT22;13092;51.996;4.458;2023-11-21T14:04:14;12.00;99.90
25112;DHT22;13092;51.996;4.458;2023-11-21T14:06:58;12.00;99.90
25112;DHT22;13092;51.996;4.458;2023-11-21T14:09:37;12.00;99.90
25112;DHT22;13092;51.996;4.458;2023-11-21T14:12:11;11.90;99.90
25112;DHT22;13092;51.996;4.458;2023-11-21T14:14:40;11.90;99.90
25112;DHT22;13092;51.996;4.458;2023-11-21T14:17:09;11.90;99.90
25112;DHT22;13092;51.996;4.458;2023-11-21T14:19:37;11.90;99.90
25112;DHT22;13092;51.996;4.458;2023-11-21T14:22:10;11.90;99.90
25112;DHT22;13092;51.996;4.458;2023-11-21T14:24:41;11.70;99.90
25112;DHT22;13092;51.996;4.458;2023-11-21T14:27:14;11.70;99.90
25112;DHT22;13092;51.996;4.458;2023-11-21T14:29:42;11.70;99.90
25112;DHT22;13092;51.996;4.458;2023-11-21T14:32:14;11.70;99.90
25112;DHT22;13092;51.996;4.458;2023-11-21T14:34:43;11.80;99.90
25112;DHT22;13092;51.996;4.458;2023-11-21T14:37:14;11.60;99.90
25112;DHT22;13092;51.996;4.458;2023-11-21T14:39:42;11.60;99.90
25112;DHT22;13092;51.996;4.458;2023-11-21T14:42:13;11.60;99.90
25112;DHT22;13092;51.996;4.458;2023-11-21T14:44:43;11.50;99.90
25112;DHT22;13092;51.996;4.458;2023-11-21T14:47:13;11.40;99.90
25112;DHT22;13092;51.996;4.458;2023-11-21T14:49:44;11.40;99.90
25112;DHT22;13092;51.996;4.458;2023-11-21T14:52:21;11.20;99.90
25112;DHT22;13092;51.996;4.458;2023-11-21T14:55:01;11.10;99.90
25112;DHT22;13092;51.996;4.458;2023-11-21T14:57:52;11.10;99.90
25112;DHT22;13092;51.996;4.458;2023-11-21T15:00:21;11.10;99.90
25112;DHT22;13092;51.996;4.458;2023-11-21T15:03:13;10.90;99.90
25112;DHT22;13092;51.996;4.458;2023-11-21T15:06:05;11.00;99.90
25112;DHT22;13092;51.996;4.458;2023-11-21T15:08:50;11.00;99.90
25112;DHT22;13092;51.996;4.458;2023-11-21T15:11:26;10.90;99.90
25112;DHT22;13092;51.996;4.458;2023-11-21T15:13:58;10.90;99.90
25112;DHT22;13092;51.996;4.458;2023-11-21T15:16:26;10.90;99.90
25112;DHT22;13092;51.996;4.458;2023-11-21T15:18:56;11.00;99.90
25112;DHT22;13092;51.996;4.458;2023-11-21T15:21:25;11.00;99.90
25112;DHT22;13092;51.996;4.458;2023-11-21T15:23:53;11.00;99.90
25112;DHT22;13092;51.996;4.458;2023-11-21T15:26:21;10.70;99.90
25112;DHT22;13092;51.996;4.458;2023-11-21T15:28:50;10.80;99.90
25112;DHT22;13092;51.996;4.458;2023-11-21T15:31:18;10.90;99.90
25112;DHT22;13092;51.996;4.458;2023-11-21T15:33:50;10.90;99.90
25112;DHT22;13092;51.996;4.458;2023-11-21T15:36:21;10.90;99.90
25112;DHT22;13092;51.996;4.458;2023-11-21T15:38:49;10.90;99.90
25112;DHT22;13092;51.996;4.458;2023-11-21T15:41:17;10.80;99.90
25112;DHT22;13092;51.996;4.458;2023-11-21T15:43:46;10.80;99.90
25112;DHT22;13092;51.996;4.458;2023-11-21T15:46:15;10.80;99.90
25112;DHT22;13092;51.996;4.458;2023-11-21T15:48:44;10.70;99.90
25112;DHT22;13092;51.996;4.458;2023-11-21T15:51:17;10.70;99.90
25112;DHT22;13092;51.996;4.458;2023-11-21T15:53:47;10.70;99.90